Time;durP1;ratioP1;P1;durP2;ratioP2;P2;SDS_P1;SDS_P2;PMS_P1;PMS_P2;Temp;Humidity;BMP_temperature;BMP_pressure;BME280_temperature;BME280_humidity;BME280_pressure;Samples;Min_cycle;Max_cycle;Signal;HPM_P1;HPM_P2
2021/10/13 00:07:18;;;;;;;0.85;0.47;;;16.20;57.70;;;;;;20792064;28;20391;-77
2021/10/13 00:17:18;;;;;;;0.35;0.30;;;16.30;57.80;;;;;;20792220;28;20399;-78
2021/10/13 00:27:19;;;;;;;1.00;0.60;;;16.30;57.80;;;;;;20807353;28;20068;-78
2021/10/13 00:37:21;;;;;;;0.60;0.50;;;16.30;57.80;;;;;;20799126;28;20121;-77
2021/10/13 00:47:22;;;;;;;0.73;0.47;;;16.20;57.70;;;;;;20804933;28;20044;-77
2021/10/13 00:57:23;;;;;;;1.15;0.55;;;16.30;57.80;;;;;;20788118;28;20430;-78
2021/10/13 01:07:52;;;;;;;0.77;0.50;;;16.30;57.80;;;;;;20804546;28;20530;-77
2021/10/13 01:18:04;;;;;;;1.15;0.60;;;16.30;57.70;;;;;;20803257;28;20045;-77
2021/10/13 01:28:10;;;;;;;0.50;0.50;;;16.20;57.60;;;;;;20802896;28;20107;-77
2021/10/13 01:38:13;;;;;;;0.77;0.40;;;16.20;57.50;;;;;;20785211;28;20171;-78
2021/10/13 01:48:15;;;;;;;1.13;0.40;;;16.20;57.40;;;;;;20801076;28;20072;-77
2021/10/13 01:58:16;;;;;;;0.85;0.50;;;16.20;57.40;;;;;;20799178;28;20037;-78
2021/10/13 02:08:18;;;;;;;0.95;0.75;;;16.20;57.30;;;;;;20814865;28;20037;-77
2021/10/13 02:18:23;;;;;;;0.88;0.40;;;16.30;57.40;;;;;;20798159;28;20038;-77
2021/10/13 02:28:30;;;;;;;0.47;0.37;;;16.20;57.30;;;;;;20797181;28;20037;-77
2021/10/13 02:38:31;;;;;;;0.75;0.40;;;16.20;57.20;;;;;;20796761;28;20103;-77
2021/10/13 02:48:34;;;;;;;1.58;0.63;;;16.40;56.90;;;;;;20795854;28;20025;-77
2021/10/13 02:58:52;;;;;;;0.50;0.50;;;16.50;56.50;;;;;;20794842;28;20041;-76
2021/10/13 03:08:54;;;;;;;0.55;0.38;;;16.80;56.00;;;;;;20795022;28;20045;-77
2021/10/13 03:18:56;;;;;;;1.00;0.60;;;16.90;55.60;;;;;;20794015;28;20045;-77
2021/10/13 03:28:57;;;;;;;0.73;0.45;;;16.60;55.90;;;;;;20809881;28;20041;-77
2021/10/13 03:38:57;;;;;;;0.40;0.40;;;16.30;56.50;;;;;;20776577;28;20624;-77
2021/10/13 03:48:59;;;;;;;0.50;0.38;;;16.00;57.20;;;;;;20809360;28;20037;-78
2021/10/13 03:58:59;;;;;;;1.00;0.65;;;15.80;57.80;;;;;;20808570;28;20120;-77
2021/10/13 04:09:00;;;;;;;1.67;0.73;;;15.70;58.30;;;;;;20795309;28;20042;-76
2021/10/13 04:19:00;;;;;;;0.60;0.52;;;15.70;58.40;;;;;;20824157;28;20132;-77
2021/10/13 04:29:01;;;;;;;1.02;0.43;;;16.60;56.60;;;;;;20823155;28;20034;-77
2021/10/13 04:39:01;;;;;;;1.70;0.88;;;18.10;53.40;;;;;;20806865;28;20469;-77
2021/10/13 04:49:02;;;;;;;0.50;0.50;;;19.10;50.70;;;;;;20804133;28;20048;-76
2021/10/13 04:59:03;;;;;;;1.02;0.70;;;19.80;49.20;;;;;;20802787;28;20323;-79
2021/10/13 05:09:04;;;;;;;1.30;0.82;;;20.00;48.30;;;;;;20769522;28;20160;-75
2021/10/13 05:19:04;;;;;;;0.88;0.60;;;20.00;48.20;;;;;;20763064;28;20037;-78
2021/10/13 05:29:05;;;;;;;0.80;0.40;;;19.80;48.20;;;;;;20769431;28;20095;-84
2021/10/13 05:39:06;;;;;;;4.00;0.90;;;19.30;48.80;;;;;;20782015;28;20092;-78
2021/10/13 05:49:07;;;;;;;0.73;0.57;;;18.50;50.30;;;;;;20794441;28;20033;-74
2021/10/13 05:59:08;;;;;;;0.50;0.43;;;17.90;51.70;;;;;;20775204;28;20048;-77
2021/10/13 06:09:08;;;;;;;0.88;0.60;;;17.40;52.90;;;;;;20809330;28;20037;-78
2021/10/13 06:19:09;;;;;;;1.13;0.68;;;17.10;53.80;;;;;;20723698;28;20077;-77
2021/10/13 06:29:09;;;;;;;0.50;0.32;;;16.80;54.60;;;;;;20768723;28;20112;-78
2021/10/13 06:39:10;;;;;;;0.32;0.30;;;16.70;55.00;;;;;;20771565;28;20115;-78
2021/10/13 06:49:11;;;;;;;1.20;0.50;;;16.60;55.90;;;;;;20790254;28;20045;-79
2021/10/13 06:59:12;;;;;;;0.73;0.43;;;16.70;55.20;;;;;;20772476;28;20033;-78
2021/10/13 07:09:13;;;;;;;0.68;0.40;;;16.80;55.20;;;;;;20805240;28;20299;-78
2021/10/13 07:19:13;;;;;;;0.85;0.50;;;16.80;55.20;;;;;;20788261;28;20041;-78
2021/10/13 07:29:15;;;;;;;0.68;0.45;;;16.90;55.10;;;;;;20772882;28;20431;-81
2021/10/13 07:39:15;;;;;;;1.40;0.50;;;16.90;55.00;;;;;;20768046;28;20065;-79
2021/10/13 07:49:18;;;;;;;0.57;0.40;;;17.00;55.00;;;;;;20813320;28;20125;-79
2021/10/13 07:59:18;;;;;;;0.52;0.40;;;16.90;54.90;;;;;;20798990;28;20464;-79
2021/10/13 08:09:20;;;;;;;0.75;0.65;;;16.90;55.00;;;;;;20831211;28;20044;-80
2021/10/13 08:19:21;;;;;;;0.63;0.60;;;17.00;54.90;;;;;;20809661;28;20116;-79
2021/10/13 08:29:22;;;;;;;1.05;0.70;;;17.00;54.90;;;;;;20732140;28;20471;-79
2021/10/13 08:39:22;;;;;;;0.70;0.40;;;17.00;54.90;;;;;;20747788;28;20034;-79
2021/10/13 08:49:23;;;;;;;1.60;0.57;;;16.90;54.90;;;;;;20810996;28;20029;-80
2021/10/13 08:59:41;;;;;;;1.67;0.90;;;17.00;55.10;;;;;;20801464;28;20041;-79
2021/10/13 09:09:47;;;;;;;1.02;0.77;;;17.00;55.20;;;;;;20789312;28;20472;-79
2021/10/13 09:19:48;;;;;;;4.32;2.00;;;16.90;55.30;;;;;;20797500;28;20662;-79
2021/10/13 09:29:49;;;;;;;1.00;0.65;;;16.90;55.50;;;;;;20780503;28;20091;-78
2021/10/13 09:39:58;;;;;;;1.48;0.70;;;16.80;55.60;;;;;;20796163;28;20072;-79
2021/10/13 09:49:59;;;;;;;1.23;0.85;;;16.80;55.70;;;;;;20795121;28;20722;-79
2021/10/13 10:00:30;;;;;;;0.80;0.50;;;16.80;55.80;;;;;;20808037;28;20073;-78
2021/10/13 10:10:31;;;;;;;1.27;0.75;;;16.80;55.90;;;;;;20780659;28;20041;-78
2021/10/13 10:20:35;;;;;;;1.20;0.70;;;16.80;56.00;;;;;;20779271;28;20048;-80
2021/10/13 10:30:36;;;;;;;2.63;1.00;;;16.80;56.10;;;;;;20797482;28;20079;-77
2021/10/13 10:40:37;;;;;;;1.60;0.88;;;16.80;56.20;;;;;;21152498;22;20049;-72
2021/10/13 10:50:58;;;;;;;0.98;0.80;;;16.80;56.30;;;;;;20777958;28;20035;-76
2021/10/13 11:01:10;;;;;;;2.58;1.05;;;16.80;56.40;;;;;;20793424;28;20041;-76
2021/10/13 11:11:16;;;;;;;1.10;0.80;;;16.80;56.60;;;;;;20779117;28;20083;-76
2021/10/13 11:21:18;;;;;;;1.55;0.77;;;16.70;56.70;;;;;;20775528;28;20136;-77
2021/10/13 11:31:18;;;;;;;4.93;0.98;;;16.70;57.00;;;;;;20793854;28;20071;-78
2021/10/13 11:41:19;;;;;;;0.82;0.57;;;16.60;57.10;;;;;;20809168;28;20034;-79
2021/10/13 11:51:19;;;;;;;1.75;0.85;;;16.60;57.30;;;;;;20786943;28;20396;-73
2021/10/13 12:01:26;;;;;;;1.40;0.90;;;16.60;57.40;;;;;;20773890;28;20443;-78
2021/10/13 12:11:34;;;;;;;;;;;16.60;57.50;;;;;;20775876;28;20037;-79
2021/10/13 12:21:35;;;;;;;1.88;0.98;;;16.60;57.60;;;;;;20778549;28;19956;-78
2021/10/13 12:31:36;;;;;;;1.25;0.70;;;16.60;57.70;;;;;;20782233;28;20076;-78
2021/10/13 12:41:45;;;;;;;1.33;0.50;;;16.60;57.80;;;;;;20805605;28;20038;-78
2021/10/13 12:51:51;;;;;;;1.08;0.55;;;16.50;58.00;;;;;;20807722;28;20041;-82
2021/10/13 13:01:54;;;;;;;1.10;0.57;;;16.50;58.10;;;;;;20814932;28;20111;-85
2021/10/13 13:12:00;;;;;;;0.80;0.73;;;16.50;58.20;;;;;;20817168;28;20061;-85
2021/10/13 13:22:01;;;;;;;;;;;16.40;58.30;;;;;;20828025;28;20117;-82
2021/10/13 13:32:03;;;;;;;2.38;0.68;;;16.40;58.40;;;;;;20790682;28;19999;-85
2021/10/13 13:42:05;;;;;;;2.47;0.82;;;16.40;58.40;;;;;;20753377;28;20048;-80
2021/10/13 13:52:07;;;;;;;1.25;0.65;;;16.40;58.50;;;;;;20744492;28;20053;-80
2021/10/13 14:02:07;;;;;;;2.08;0.80;;;16.40;58.50;;;;;;20770699;28;20476;-80
2021/10/13 14:12:09;;;;;;;2.33;0.90;;;16.40;58.60;;;;;;20786593;28;20045;-81
2021/10/13 14:22:09;;;;;;;3.03;0.60;;;16.90;57.80;;;;;;20787705;28;20518;-83
2021/10/13 14:32:12;;;;;;;1.98;0.73;;;17.80;55.80;;;;;;20823362;28;20029;-85
2021/10/13 14:42:16;;;;;;;0.60;0.60;;;18.70;53.60;;;;;;20788473;28;20041;-79
2021/10/13 14:52:17;;;;;;;0.82;0.50;;;19.30;52.10;;;;;;20780285;28;20046;-80
2021/10/13 15:02:17;;;;;;;1.75;0.70;;;19.50;51.40;;;;;;20797449;28;20065;-79
2021/10/13 15:12:18;;;;;;;2.15;0.63;;;19.60;51.20;;;;;;20808815;28;20076;-78
2021/10/13 15:22:20;;;;;;;2.33;1.00;;;19.10;51.80;;;;;;20790698;28;20049;-80
2021/10/13 15:32:21;;;;;;;4.53;0.50;;;18.40;53.30;;;;;;20762275;28;20404;-80
2021/10/13 15:42:22;;;;;;;2.13;0.70;;;17.70;54.70;;;;;;20812009;28;20048;-79
2021/10/13 15:52:24;;;;;;;1.02;0.70;;;17.20;56.60;;;;;;20808103;28;20052;-83
2021/10/13 16:02:25;;;;;;;1.73;0.75;;;16.90;56.90;;;;;;20802342;28;20544;-82
2021/10/13 16:12:29;;;;;;;1.27;0.73;;;16.70;57.70;;;;;;20811992;28;20049;-84
2021/10/13 16:22:29;;;;;;;1.38;0.80;;;16.70;58.20;;;;;;20827904;28;20037;-75
2021/10/13 16:32:30;;;;;;;1.67;0.90;;;16.60;58.30;;;;;;20792804;28;20489;-75
2021/10/13 16:42:31;;;;;;;2.28;0.80;;;16.70;58.40;;;;;;20814254;28;20091;-87
2021/10/13 16:52:33;;;;;;;0.95;0.57;;;16.80;58.30;;;;;;20802047;28;20117;-77
2021/10/13 17:02:34;;;;;;;2.50;1.00;;;16.80;58.40;;;;;;20807187;28;20037;-84
2021/10/13 17:12:35;;;;;;;1.50;0.57;;;16.90;58.40;;;;;;20824132;28;20053;-82
2021/10/13 17:22:36;;;;;;;1.15;0.80;;;16.90;58.40;;;;;;20829888;28;20136;-84
2021/10/13 17:32:37;;;;;;;2.87;1.27;;;16.90;58.40;;;;;;20821099;28;20056;-83
2021/10/13 17:42:37;;;;;;;1.55;0.82;;;16.80;58.50;;;;;;20789275;28;20788;-82
2021/10/13 17:52:38;;;;;;;1.98;0.80;;;16.80;58.50;;;;;;20789336;28;20104;-81
2021/10/13 18:02:38;;;;;;;2.72;0.98;;;16.80;58.70;;;;;;20802094;28;20041;-80
2021/10/13 18:12:39;;;;;;;2.38;1.10;;;16.80;58.80;;;;;;20763734;28;20068;-81
2021/10/13 18:22:40;;;;;;;1.83;0.93;;;16.80;58.80;;;;;;20799202;28;20041;-81
2021/10/13 18:32:41;;;;;;;1.40;0.93;;;16.90;58.80;;;;;;20812089;28;20036;-81
2021/10/13 18:42:42;;;;;;;3.67;1.17;;;16.70;58.80;;;;;;20768295;28;20771;-81
2021/10/13 18:52:45;;;;;;;1.33;0.70;;;16.70;58.90;;;;;;20798796;28;20459;-81
2021/10/13 19:02:46;;;;;;;2.25;1.30;;;16.80;58.90;;;;;;20782214;28;20446;-82
2021/10/13 19:12:46;;;;;;;0.93;0.60;;;16.80;59.00;;;;;;20781862;28;20033;-82
2021/10/13 19:22:47;;;;;;;1.52;0.95;;;16.70;59.00;;;;;;20796171;28;20033;-81
2021/10/13 19:32:48;;;;;;;1.67;0.80;;;16.80;59.00;;;;;;20765475;28;20064;-81
2021/10/13 19:42:48;;;;;;;1.85;0.80;;;16.70;59.00;;;;;;20811405;28;20037;-82
2021/10/13 19:52:49;;;;;;;1.40;0.65;;;16.70;59.00;;;;;;20829223;28;20026;-82
2021/10/13 20:02:50;;;;;;;0.93;0.63;;;16.70;59.00;;;;;;20763545;28;20627;-81
2021/10/13 20:12:50;;;;;;;1.75;0.68;;;16.70;59.10;;;;;;20810399;28;20517;-81
2021/10/13 20:22:51;;;;;;;1.00;0.65;;;16.70;59.10;;;;;;20794604;28;20041;-82
2021/10/13 20:32:51;;;;;;;1.15;0.77;;;16.70;59.10;;;;;;20778055;28;20080;-83
2021/10/13 20:42:54;;;;;;;1.63;0.68;;;16.70;59.20;;;;;;20796243;28;20041;-81
2021/10/13 20:52:54;;;;;;;1.02;0.60;;;16.70;59.20;;;;;;20783162;28;20083;-81
2021/10/13 21:02:55;;;;;;;0.75;0.47;;;16.70;59.20;;;;;;20808761;28;20065;-81
2021/10/13 21:12:56;;;;;;;0.80;0.50;;;16.70;59.30;;;;;;20824446;28;20025;-80
2021/10/13 21:22:56;;;;;;;2.10;0.50;;;16.70;59.40;;;;;;20789900;28;20413;-80
2021/10/13 21:32:57;;;;;;;1.70;0.60;;;16.70;59.50;;;;;;20772611;28;20029;-81
2021/10/13 21:42:57;;;;;;;1.33;0.68;;;16.70;59.50;;;;;;20805986;28;20109;-81
2021/10/13 21:52:58;;;;;;;0.87;0.70;;;16.70;59.50;;;;;;20803756;28;20035;-80
2021/10/13 22:02:59;;;;;;;1.77;0.73;;;16.70;59.60;;;;;;20820185;28;20351;-80
2021/10/13 22:13:00;;;;;;;2.57;0.70;;;16.80;59.70;;;;;;20788021;28;20460;-80
2021/10/13 22:23:01;;;;;;;2.17;0.80;;;16.70;59.60;;;;;;20800922;28;20636;-80
2021/10/13 22:33:01;;;;;;;1.73;0.70;;;16.70;59.60;;;;;;20801359;28;20076;-80
2021/10/13 22:43:02;;;;;;;1.50;0.70;;;16.60;59.70;;;;;;20784871;28;20300;-80
2021/10/13 22:53:03;;;;;;;0.82;0.65;;;16.60;59.70;;;;;;20767255;28;20088;-80
2021/10/13 23:03:04;;;;;;;3.75;1.15;;;16.60;59.80;;;;;;20815565;28;20045;-79
2021/10/13 23:13:04;;;;;;;1.33;0.57;;;16.60;60.40;;;;;;20797064;28;20472;-80
2021/10/13 23:23:05;;;;;;;1.83;0.77;;;16.60;59.80;;;;;;20782284;28;20041;-79
2021/10/13 23:33:05;;;;;;;0.77;0.60;;;16.60;60.00;;;;;;20780286;28;20025;-80
2021/10/13 23:43:07;;;;;;;2.50;0.40;;;16.60;60.00;;;;;;20796267;28;20467;-79
2021/10/13 23:53:08;;;;;;;1.83;0.63;;;16.60;60.00;;;;;;20796962;28;20029;-79
